Wilson Clyde — 8PRV — position and weather

sailwx.info

Track history (hours):
 
Tides and Currents Weather Stations Pressure Air Temp Water Temp Dewpoint Dewpoint Depression Visibility Wind Speed Wind Dir Waves Ship Positions

Wilson Clyde

Last reported at 2018-May-24 09:00 UTC. Time now 2018-May-24 10:08 UTC.
Position N 54°49' E 018°51'.

Length 100 m; draft 4.3 m.

Type: Cargo ship. MMSI: 314187000.

Date/timePositionNaut miles runAvg speedWind from/ knotsBaromVisibWave heightAir tempDewpointWater temp
2018-May-24 09:00N 54°49' E 018°51'611.2
2018-May-24 08:30N 54°52' E 018°43'611.4
2018-May-24 08:00N 54°56' E 018°35'510.6
2018-May-24 07:30N 54°58' E 018°26'611.0
2018-May-24 07:00N 54°58' E 018°17'611.0
2018-May-24 06:30N 54°58' E 018°07'611.1
2018-May-24 06:00N 54°58' E 017°58'611.2
2018-May-24 05:30N 54°56' E 017°48'611.3
2018-May-24 05:00N 54°55' E 017°38'611.3
2018-May-24 04:30N 54°54' E 017°29'611.4
2018-May-24 04:00N 54°53' E 017°19'1111.1
2018-May-24 03:02N 54°50' E 017°01'011.5
2018-May-24 03:00N 54°50' E 017°00'611.3
2018-May-24 02:30N 54°49' E 016°51'1711.1
2018-May-24 00:58N 54°45' E 016°22'5 9.5
2018-May-24 00:29N 54°43' E 016°14'510.0
2018-May-23 23:59N 54°42' E 016°06'511.4
2018-May-23 23:30N 54°40' E 015°57'611.1
2018-May-23 23:00N 54°39' E 015°48'611.0
2018-May-23 22:29N 54°37' E 015°38'1011.0
2018-May-23 21:35N 54°34' E 015°22'910.9
2018-May-23 20:44N 54°31' E 015°07'410.8
2018-May-23 20:21N 54°31' E 014°60'411.0
2018-May-23 20:00N 54°30' E 014°54'610.7
2018-May-23 19:26N 54°28' E 014°44'510.6
2018-May-23 19:00N 54°27' E 014°36'610.8
2018-May-23 18:27N 54°25' E 014°26'510.8
2018-May-23 18:00N 54°24' E 014°18'  
2018-May-20 10:19N 54°45' E 013°30'710.5
2018-May-20 09:38N 54°45' E 013°18'410.1
2018-May-20 09:15N 54°45' E 013°11'210.2
2018-May-20 09:00N 54°45' E 013°06'610.3
2018-May-20 08:25N 54°45' E 012°56'4 8.4
2018-May-20 07:59N 54°45' E 012°50'510.1
2018-May-20 07:30N 54°44' E 012°42'610.6
2018-May-20 06:54N 54°40' E 012°32'510.4
2018-May-20 06:26N 54°38' E 012°25'410.2
2018-May-20 06:00N 54°35' E 012°19'510.5
2018-May-20 05:30N 54°30' E 012°16'510.3
2018-May-20 05:00N 54°26' E 012°11'5 9.6
2018-May-20 04:30N 54°24' E 012°04'510.6
2018-May-20 04:00N 54°24' E 011°55'510.5
2018-May-20 03:30N 54°25' E 011°46'510.7
2018-May-20 03:00N 54°27' E 011°37'510.9
2018-May-20 02:30N 54°29' E 011°29'510.6
2018-May-20 02:00N 54°32' E 011°21'510.2
2018-May-20 01:30N 54°34' E 011°13'510.0
2018-May-20 01:00N 54°35' E 011°04'510.7
2018-May-20 00:30N 54°34' E 010°55'510.7
2018-May-20 00:00N 54°34' E 010°46'510.6
2018-May-19 23:30N 54°34' E 010°37'510.5
2018-May-19 23:00N 54°32' E 010°28'510.6
2018-May-19 22:30N 54°30' E 010°20'5 9.7
2018-May-19 21:59N 54°26' E 010°14'16 4.2
2018-May-19 18:11N 54°22' E 009°48'2 8.3
2018-May-19 18:00N 54°21' E 009°46'4 8.4
2018-May-19 17:30N 54°18' E 009°41'4 7.8
2018-May-19 17:00N 54°15' E 009°37'4 8.0
2018-May-19 16:30N 54°12' E 009°32'4 8.5
2018-May-19 16:00N 54°10' E 009°26'4 8.2
2018-May-19 15:29N 54°08' E 009°20'7 8.6
2018-May-19 14:43N 54°01' E 009°18'2 8.6
2018-May-19 14:30N 53°59' E 009°17'4 8.7
2018-May-19 14:00N 53°56' E 009°12'3 6.5
2018-May-19 13:30N 53°54' E 009°09'0 0.0
2018-May-19 13:00N 53°54' E 009°09'1 1.9
2018-May-19 12:30N 53°53' E 009°07'5 9.8
2018-May-19 12:00N 53°51' E 008°60'612.3
2018-May-19 11:30N 53°50' E 008°49'611.3
2018-May-19 11:00N 53°54' E 008°42'611.6
2018-May-19 10:29N 53°58' E 008°34'611.8
2018-May-19 10:00N 53°59' E 008°25'611.9
2018-May-19 09:29N 53°60' E 008°14'510.4
2018-May-19 09:00N 53°59' E 008°06'510.2
2018-May-19 08:30N 53°58' E 007°57'9610.0
2018-May-18 22:59N 53°32' E 005°22'610.9
2018-May-18 22:27N 53°30' E 005°12'511.0
2018-May-18 22:00N 53°29' E 005°05'511.0
2018-May-18 21:30N 53°27' E 004°56'610.9
2018-May-18 20:59N 53°25' E 004°47'2110.8
2018-May-18 19:03N 53°07' E 004°28'511.2
2018-May-18 18:35N 53°03' E 004°24'111.6
2018-May-18 18:28N 53°02' E 004°23'611.6
2018-May-18 17:58N 52°57' E 004°18'2811.5
2018-May-18 15:32N 52°32' E 003°55'010.9
2018-May-18 15:30N 52°32' E 003°55'510.6
2018-May-18 15:00N 52°27' E 003°54'510.2
2018-May-18 14:30N 52°22' E 003°52'5 9.7
2018-May-18 14:00N 52°17' E 003°52'5 9.6
2018-May-18 13:30N 52°12' E 003°54'5 9.4
2018-May-18 13:00N 52°07' E 003°55'5 9.2
2018-May-18 12:30N 52°03' E 003°54'3 5.8
2018-May-18 12:00N 52°01' E 003°58'612.1
2018-May-18 11:30N 51°59' E 004°07'612.9
2018-May-18 11:00N 51°55' E 004°15'510.9
2018-May-18 10:30N 51°54' E 004°23'1 2.0
2018-May-18 09:58N 51°54' E 004°25'0 0.0
2018-May-18 09:28N 51°54' E 004°25'0 0.0
2018-May-18 08:58N 51°54' E 004°25'0 0.0
2018-May-18 08:28N 51°54' E 004°25'0 0.0
2018-May-18 07:58N 51°54' E 004°25'0 0.0
2018-May-18 07:28N 51°54' E 004°25'0 0.0
2018-May-18 06:58N 51°54' E 004°25'0 0.0
2018-May-18 06:28N 51°54' E 004°25'0 0.0
2018-May-18 05:58N 51°54' E 004°25'0 0.0
2018-May-18 05:28N 51°54' E 004°25'0 0.0
2018-May-18 04:58N 51°54' E 004°25'0 0.0
2018-May-18 04:28N 51°54' E 004°25'0 0.0
2018-May-18 03:58N 51°54' E 004°25'0 0.0
2018-May-18 03:28N 51°54' E 004°25'0 0.0
2018-May-18 02:58N 51°54' E 004°25'0 0.0
2018-May-18 02:28N 51°54' E 004°25'0 0.0
2018-May-18 01:58N 51°54' E 004°25'0 0.0
2018-May-18 01:28N 51°54' E 004°25'0 0.0
2018-May-18 00:58N 51°54' E 004°25'0 0.0
2018-May-18 00:28N 51°54' E 004°25'0 0.0
2018-May-17 23:58N 51°54' E 004°25'0 0.0
2018-May-17 23:28N 51°54' E 004°25'0 0.0
2018-May-17 22:58N 51°54' E 004°25'0 0.0
2018-May-17 22:28N 51°54' E 004°25'0 0.0
2018-May-17 21:58N 51°54' E 004°25'0 0.0
2018-May-17 21:28N 51°54' E 004°25'0 0.0
2018-May-17 21:00N 51°54' E 004°25'0 0.0
2018-May-17 20:30N 51°54' E 004°25'1 1.7
2018-May-17 20:00N 51°54' E 004°24'5 9.3
2018-May-17 19:30N 51°54' E 004°16'5 9.0
2018-May-17 19:00N 51°57' E 004°11'510.0
2018-May-17 18:30N 51°59' E 004°03'510.1
2018-May-17 18:00N 52°00' E 003°55'2 4.5
2018-May-17 17:30N 52°01' E 003°52'611.1
2018-May-17 17:00N 51°59' E 003°43'611.8
2018-May-17 16:30N 51°57' E 003°34'611.9
2018-May-17 16:00N 51°55' E 003°25'1111.8
2018-May-17 15:04N 51°52' E 003°08'2810.7
2018-May-17 12:26N 51°38' E 002°29'5 9.3
2018-May-17 11:55N 51°34' E 002°24'4 9.0
2018-May-17 11:25N 51°31' E 002°19'4 8.9
2018-May-17 11:00N 51°27' E 002°16'4 8.2
2018-May-17 10:30N 51°24' E 002°12'4 7.9
2018-May-17 10:00N 51°21' E 002°09'4 8.1
2018-May-17 09:30N 51°17' E 002°06'4 7.9
2018-May-17 09:01N 51°14' E 002°03'4 7.7
2018-May-17 08:31N 51°12' E 001°58'4 8.0
2018-May-17 07:59N 51°10' E 001°52'4 7.9
2018-May-17 07:30N 51°08' E 001°47'4 7.8
2018-May-17 07:00N 51°05' E 001°41'4 7.8
2018-May-17 06:30N 51°03' E 001°36'4 7.6
2018-May-17 06:00N 51°01' E 001°32'6 8.2
2018-May-17 05:18N 51°03' E 001°23'3 5.1
2018-May-17 04:47N 51°06' E 001°22'312.3
2018-May-17 04:30N 51°07' E 001°27'611.3
2018-May-17 04:00N 51°10' E 001°34'5 9.2
2018-May-17 03:30N 51°14' E 001°38'510.2
2018-May-17 03:01N 51°19' E 001°36'510.5
2018-May-17 02:31N 51°24' E 001°33'611.4
2018-May-17 02:00N 51°27' E 001°25'711.4
2018-May-17 01:25N 51°29' E 001°15'  
Track history (hours):
 
Tides and Currents Weather Stations Pressure Air Temp Water Temp Dewpoint Dewpoint Depression Visibility Wind Speed Wind Dir Waves Ship Positions

Wilson Clyde

Last reported at 2018-May-24 09:00 UTC. Time now 2018-May-24 10:08 UTC.
Position N 54°49' E 018°51'.

Length 100 m; draft 4.3 m.

Type: Cargo ship. MMSI: 314187000.

Date/timePositionNaut miles runAvg speedWind from/ knotsBaromVisibWave heightAir tempDewpointWater temp
2018-May-24 09:00N 54°49' E 018°51'611.2
2018-May-24 08:30N 54°52' E 018°43'611.4
2018-May-24 08:00N 54°56' E 018°35'510.6
2018-May-24 07:30N 54°58' E 018°26'611.0
2018-May-24 07:00N 54°58' E 018°17'611.0
2018-May-24 06:30N 54°58' E 018°07'611.1
2018-May-24 06:00N 54°58' E 017°58'611.2
2018-May-24 05:30N 54°56' E 017°48'611.3
2018-May-24 05:00N 54°55' E 017°38'611.3
2018-May-24 04:30N 54°54' E 017°29'611.4
2018-May-24 04:00N 54°53' E 017°19'1111.1
2018-May-24 03:02N 54°50' E 017°01'011.5
2018-May-24 03:00N 54°50' E 017°00'611.3
2018-May-24 02:30N 54°49' E 016°51'1711.1
2018-May-24 00:58N 54°45' E 016°22'5 9.5
2018-May-24 00:29N 54°43' E 016°14'510.0
2018-May-23 23:59N 54°42' E 016°06'511.4
2018-May-23 23:30N 54°40' E 015°57'611.1
2018-May-23 23:00N 54°39' E 015°48'611.0
2018-May-23 22:29N 54°37' E 015°38'1011.0
2018-May-23 21:35N 54°34' E 015°22'910.9
2018-May-23 20:44N 54°31' E 015°07'410.8
2018-May-23 20:21N 54°31' E 014°60'411.0
2018-May-23 20:00N 54°30' E 014°54'610.7
2018-May-23 19:26N 54°28' E 014°44'510.6
2018-May-23 19:00N 54°27' E 014°36'610.8
2018-May-23 18:27N 54°25' E 014°26'510.8
2018-May-23 18:00N 54°24' E 014°18'  
2018-May-20 10:19N 54°45' E 013°30'710.5
2018-May-20 09:38N 54°45' E 013°18'410.1
2018-May-20 09:15N 54°45' E 013°11'210.2
2018-May-20 09:00N 54°45' E 013°06'610.3
2018-May-20 08:25N 54°45' E 012°56'4 8.4
2018-May-20 07:59N 54°45' E 012°50'510.1
2018-May-20 07:30N 54°44' E 012°42'610.6
2018-May-20 06:54N 54°40' E 012°32'510.4
2018-May-20 06:26N 54°38' E 012°25'410.2
2018-May-20 06:00N 54°35' E 012°19'510.5
2018-May-20 05:30N 54°30' E 012°16'510.3
2018-May-20 05:00N 54°26' E 012°11'5 9.6
2018-May-20 04:30N 54°24' E 012°04'510.6
2018-May-20 04:00N 54°24' E 011°55'510.5
2018-May-20 03:30N 54°25' E 011°46'510.7
2018-May-20 03:00N 54°27' E 011°37'510.9
2018-May-20 02:30N 54°29' E 011°29'510.6
2018-May-20 02:00N 54°32' E 011°21'510.2
2018-May-20 01:30N 54°34' E 011°13'510.0
2018-May-20 01:00N 54°35' E 011°04'510.7
2018-May-20 00:30N 54°34' E 010°55'510.7
2018-May-20 00:00N 54°34' E 010°46'510.6
2018-May-19 23:30N 54°34' E 010°37'510.5
2018-May-19 23:00N 54°32' E 010°28'510.6
2018-May-19 22:30N 54°30' E 010°20'5 9.7
2018-May-19 21:59N 54°26' E 010°14'16 4.2
2018-May-19 18:11N 54°22' E 009°48'2 8.3
2018-May-19 18:00N 54°21' E 009°46'4 8.4
2018-May-19 17:30N 54°18' E 009°41'4 7.8
2018-May-19 17:00N 54°15' E 009°37'4 8.0
2018-May-19 16:30N 54°12' E 009°32'4 8.5
2018-May-19 16:00N 54°10' E 009°26'4 8.2
2018-May-19 15:29N 54°08' E 009°20'7 8.6
2018-May-19 14:43N 54°01' E 009°18'2 8.6
2018-May-19 14:30N 53°59' E 009°17'4 8.7
2018-May-19 14:00N 53°56' E 009°12'3 6.5
2018-May-19 13:30N 53°54' E 009°09'0 0.0
2018-May-19 13:00N 53°54' E 009°09'1 1.9
2018-May-19 12:30N 53°53' E 009°07'5 9.8
2018-May-19 12:00N 53°51' E 008°60'612.3
2018-May-19 11:30N 53°50' E 008°49'611.3
2018-May-19 11:00N 53°54' E 008°42'611.6
2018-May-19 10:29N 53°58' E 008°34'611.8
2018-May-19 10:00N 53°59' E 008°25'611.9
2018-May-19 09:29N 53°60' E 008°14'510.4
2018-May-19 09:00N 53°59' E 008°06'510.2
2018-May-19 08:30N 53°58' E 007°57'9610.0
2018-May-18 22:59N 53°32' E 005°22'610.9
2018-May-18 22:27N 53°30' E 005°12'511.0
2018-May-18 22:00N 53°29' E 005°05'511.0
2018-May-18 21:30N 53°27' E 004°56'610.9
2018-May-18 20:59N 53°25' E 004°47'2110.8
2018-May-18 19:03N 53°07' E 004°28'511.2
2018-May-18 18:35N 53°03' E 004°24'111.6
2018-May-18 18:28N 53°02' E 004°23'611.6
2018-May-18 17:58N 52°57' E 004°18'2811.5
2018-May-18 15:32N 52°32' E 003°55'010.9
2018-May-18 15:30N 52°32' E 003°55'510.6
2018-May-18 15:00N 52°27' E 003°54'510.2
2018-May-18 14:30N 52°22' E 003°52'5 9.7
2018-May-18 14:00N 52°17' E 003°52'5 9.6
2018-May-18 13:30N 52°12' E 003°54'5 9.4
2018-May-18 13:00N 52°07' E 003°55'5 9.2
2018-May-18 12:30N 52°03' E 003°54'3 5.8
2018-May-18 12:00N 52°01' E 003°58'612.1
2018-May-18 11:30N 51°59' E 004°07'612.9
2018-May-18 11:00N 51°55' E 004°15'510.9
2018-May-18 10:30N 51°54' E 004°23'1 2.0
2018-May-18 09:58N 51°54' E 004°25'0 0.0
2018-May-18 09:28N 51°54' E 004°25'0 0.0
2018-May-18 08:58N 51°54' E 004°25'0 0.0
2018-May-18 08:28N 51°54' E 004°25'0 0.0
2018-May-18 07:58N 51°54' E 004°25'0 0.0
2018-May-18 07:28N 51°54' E 004°25'0 0.0
2018-May-18 06:58N 51°54' E 004°25'0 0.0
2018-May-18 06:28N 51°54' E 004°25'0 0.0
2018-May-18 05:58N 51°54' E 004°25'0 0.0
2018-May-18 05:28N 51°54' E 004°25'0 0.0
2018-May-18 04:58N 51°54' E 004°25'0 0.0
2018-May-18 04:28N 51°54' E 004°25'0 0.0
2018-May-18 03:58N 51°54' E 004°25'0 0.0
2018-May-18 03:28N 51°54' E 004°25'0 0.0
2018-May-18 02:58N 51°54' E 004°25'0 0.0
2018-May-18 02:28N 51°54' E 004°25'0 0.0
2018-May-18 01:58N 51°54' E 004°25'0 0.0
2018-May-18 01:28N 51°54' E 004°25'0 0.0
2018-May-18 00:58N 51°54' E 004°25'0 0.0
2018-May-18 00:28N 51°54' E 004°25'0 0.0
2018-May-17 23:58N 51°54' E 004°25'0 0.0
2018-May-17 23:28N 51°54' E 004°25'0 0.0
2018-May-17 22:58N 51°54' E 004°25'0 0.0
2018-May-17 22:28N 51°54' E 004°25'0 0.0
2018-May-17 21:58N 51°54' E 004°25'0 0.0
2018-May-17 21:28N 51°54' E 004°25'0 0.0
2018-May-17 21:00N 51°54' E 004°25'0 0.0
2018-May-17 20:30N 51°54' E 004°25'1 1.7
2018-May-17 20:00N 51°54' E 004°24'5 9.3
2018-May-17 19:30N 51°54' E 004°16'5 9.0
2018-May-17 19:00N 51°57' E 004°11'510.0
2018-May-17 18:30N 51°59' E 004°03'510.1
2018-May-17 18:00N 52°00' E 003°55'2 4.5
2018-May-17 17:30N 52°01' E 003°52'611.1
2018-May-17 17:00N 51°59' E 003°43'611.8
2018-May-17 16:30N 51°57' E 003°34'611.9
2018-May-17 16:00N 51°55' E 003°25'1111.8
2018-May-17 15:04N 51°52' E 003°08'2810.7
2018-May-17 12:26N 51°38' E 002°29'5 9.3
2018-May-17 11:55N 51°34' E 002°24'4 9.0
2018-May-17 11:25N 51°31' E 002°19'4 8.9
2018-May-17 11:00N 51°27' E 002°16'4 8.2
2018-May-17 10:30N 51°24' E 002°12'4 7.9
2018-May-17 10:00N 51°21' E 002°09'4 8.1
2018-May-17 09:30N 51°17' E 002°06'4 7.9
2018-May-17 09:01N 51°14' E 002°03'4 7.7
2018-May-17 08:31N 51°12' E 001°58'4 8.0
2018-May-17 07:59N 51°10' E 001°52'4 7.9
2018-May-17 07:30N 51°08' E 001°47'4 7.8
2018-May-17 07:00N 51°05' E 001°41'4 7.8
2018-May-17 06:30N 51°03' E 001°36'4 7.6
2018-May-17 06:00N 51°01' E 001°32'6 8.2
2018-May-17 05:18N 51°03' E 001°23'3 5.1
2018-May-17 04:47N 51°06' E 001°22'312.3
2018-May-17 04:30N 51°07' E 001°27'611.3
2018-May-17 04:00N 51°10' E 001°34'5 9.2
2018-May-17 03:30N 51°14' E 001°38'510.2
2018-May-17 03:01N 51°19' E 001°36'510.5
2018-May-17 02:31N 51°24' E 001°33'611.4
2018-May-17 02:00N 51°27' E 001°25'711.4
2018-May-17 01:25N 51°29' E 001°15'  

Dump ship's entire track history